createdAt,value
2022-08-30T00:02:21.045Z,8.95
2022-08-30T00:04:49.187Z,8.57
2022-08-30T00:07:17.196Z,8.80
2022-08-30T00:09:45.031Z,9.07
2022-08-30T00:12:12.950Z,8.98
2022-08-30T00:14:41.077Z,9.38
2022-08-30T00:17:08.809Z,9.45
2022-08-30T00:19:37.289Z,9.48
2022-08-30T00:22:07.225Z,9.48
2022-08-30T00:24:35.247Z,9.68
2022-08-30T00:27:03.177Z,9.80
2022-08-30T00:29:31.161Z,8.93
2022-08-30T00:31:58.868Z,10.00
2022-08-30T00:34:26.901Z,10.43
2022-08-30T00:36:54.706Z,10.20
2022-08-30T00:39:22.438Z,9.38
2022-08-30T00:41:50.437Z,9.90
2022-08-30T00:44:18.694Z,10.27
2022-08-30T00:46:46.462Z,9.75
2022-08-30T00:49:15.103Z,10.45
2022-08-30T00:51:43.514Z,10.98
2022-08-30T00:54:12.271Z,10.07
2022-08-30T00:56:40.393Z,11.63
2022-08-30T00:59:10.370Z,10.70
2022-08-30T01:01:38.655Z,11.77
2022-08-30T01:04:08.920Z,11.40
2022-08-30T01:06:39.495Z,12.05
2022-08-30T01:09:09.132Z,12.65
2022-08-30T01:11:38.156Z,13.02
2022-08-30T01:14:06.881Z,12.68
2022-08-30T01:16:36.130Z,12.25
2022-08-30T01:19:06.870Z,13.32
2022-08-30T01:21:34.971Z,13.35
2022-08-30T01:24:05.059Z,13.07
2022-08-30T01:26:35.040Z,12.70
2022-08-30T01:29:10.449Z,12.55
2022-08-30T01:31:38.426Z,13.40
2022-08-30T01:34:07.815Z,13.88
2022-08-30T01:36:37.822Z,12.65
2022-08-30T01:39:15.467Z,13.68
2022-08-30T01:41:43.720Z,12.32
2022-08-30T01:44:13.118Z,13.40
2022-08-30T01:46:46.252Z,12.05
2022-08-30T01:49:17.490Z,13.10
2022-08-30T01:51:51.009Z,12.73
2022-08-30T01:54:36.833Z,13.15
2022-08-30T01:57:09.928Z,12.95
2022-08-30T01:59:39.044Z,13.73
2022-08-30T02:02:08.420Z,13.25
2022-08-30T02:04:36.862Z,13.23
2022-08-30T02:07:05.683Z,13.30
2022-08-30T02:09:33.844Z,13.40
2022-08-30T02:12:01.666Z,13.30
2022-08-30T02:14:29.415Z,12.60
2022-08-30T02:16:57.413Z,12.73
2022-08-30T02:19:25.275Z,13.27
2022-08-30T02:21:53.022Z,13.38
2022-08-30T02:24:21.179Z,12.75
2022-08-30T02:26:49.485Z,13.23
2022-08-30T02:29:17.485Z,13.15
2022-08-30T02:31:45.909Z,13.30
2022-08-30T02:34:14.070Z,13.32
2022-08-30T02:36:42.343Z,13.57
2022-08-30T02:39:12.756Z,13.45
2022-08-30T02:41:41.725Z,14.13
2022-08-30T02:44:10.782Z,12.75
2022-08-30T02:46:38.916Z,13.13
2022-08-30T02:49:32.176Z,13.10
2022-08-30T02:51:56.730Z,14.32
2022-08-30T02:54:24.782Z,13.50
2022-08-30T02:56:52.682Z,13.35
2022-08-30T02:59:21.018Z,13.90
2022-08-30T03:01:49.152Z,14.07
2022-08-30T03:04:16.998Z,13.75
2022-08-30T03:06:45.732Z,14.32
2022-08-30T03:09:13.601Z,14.43
2022-08-30T03:11:42.722Z,14.38
2022-08-30T03:14:10.606Z,14.57
2022-08-30T03:16:38.383Z,14.43
2022-08-30T03:19:06.115Z,14.10
2022-08-30T03:21:36.261Z,14.13
2022-08-30T03:24:04.264Z,14.75
2022-08-30T03:26:31.946Z,15.80
2022-08-30T03:28:59.985Z,14.45
2022-08-30T03:31:27.704Z,14.13
2022-08-30T03:33:55.467Z,15.13
2022-08-30T03:36:23.458Z,14.80
2022-08-30T03:38:51.234Z,14.93
2022-08-30T03:41:19.076Z,14.98
2022-08-30T03:43:47.493Z,15.27
2022-08-30T03:46:16.049Z,15.30
2022-08-30T03:48:44.136Z,15.38
2022-08-30T03:51:12.018Z,14.63
2022-08-30T03:53:39.747Z,15.63
2022-08-30T03:56:07.584Z,15.90
2022-08-30T03:58:36.080Z,15.13
2022-08-30T04:01:04.063Z,15.50
2022-08-30T04:03:31.809Z,14.55
2022-08-30T04:06:00.656Z,15.02
2022-08-30T04:08:28.909Z,14.23
2022-08-30T04:10:56.732Z,14.55
2022-08-30T04:13:25.282Z,15.00
2022-08-30T04:15:53.110Z,15.05
2022-08-30T04:18:21.121Z,14.73
2022-08-30T04:20:51.276Z,15.13
2022-08-30T04:23:19.585Z,14.80
2022-08-30T04:25:47.409Z,15.48
2022-08-30T04:28:15.638Z,14.27
2022-08-30T04:30:44.541Z,14.65
2022-08-30T04:33:13.771Z,15.27
2022-08-30T04:35:46.604Z,14.15
2022-08-30T04:38:15.239Z,14.70
2022-08-30T04:40:45.352Z,14.88
2022-08-30T04:43:13.352Z,15.05
2022-08-30T04:45:42.800Z,14.88
2022-08-30T04:48:10.733Z,14.60
2022-08-30T04:50:38.545Z,13.73
2022-08-30T04:53:13.846Z,15.18
2022-08-30T04:55:43.426Z,14.57
2022-08-30T04:58:12.058Z,14.00
2022-08-30T05:00:43.005Z,14.20
2022-08-30T05:03:10.889Z,14.40
2022-08-30T05:05:41.885Z,12.80
2022-08-30T05:08:12.758Z,12.75
2022-08-30T05:10:46.129Z,11.63
2022-08-30T05:13:15.756Z,11.35
2022-08-30T05:15:44.436Z,11.60
2022-08-30T05:18:14.194Z,10.88
2022-08-30T05:20:43.539Z,9.65
2022-08-30T05:23:11.386Z,9.75
2022-08-30T05:25:41.375Z,9.90
2022-08-30T05:28:10.235Z,9.68
2022-08-30T05:30:38.477Z,9.57
2022-08-30T05:33:06.746Z,9.15
2022-08-30T05:35:34.844Z,9.07
2022-08-30T05:38:02.639Z,7.97
2022-08-30T05:40:30.653Z,6.82
2022-08-30T05:42:59.472Z,7.10
2022-08-30T05:45:27.221Z,7.68
2022-08-30T05:47:54.977Z,7.47
2022-08-30T05:50:23.384Z,7.28
2022-08-30T05:52:51.108Z,6.90
2022-08-30T05:55:21.927Z,7.53
2022-08-30T05:57:49.871Z,7.03
2022-08-30T06:00:19.065Z,6.90
2022-08-30T06:02:46.969Z,6.72
2022-08-30T06:05:15.061Z,6.15
2022-08-30T06:07:44.081Z,5.38
2022-08-30T06:10:12.570Z,6.10
2022-08-30T06:12:40.778Z,5.55
2022-08-30T06:15:09.363Z,5.38
2022-08-30T06:17:39.609Z,4.53
2022-08-30T06:20:09.714Z,4.43
2022-08-30T06:22:38.982Z,4.32
2022-08-30T06:25:07.366Z,4.13
2022-08-30T06:27:35.272Z,4.20
2022-08-30T06:30:03.737Z,4.18
2022-08-30T06:32:31.668Z,3.80
2022-08-30T06:34:59.524Z,3.95
2022-08-30T06:37:29.403Z,3.80
2022-08-30T06:39:59.632Z,4.32
2022-08-30T06:42:32.202Z,4.00
2022-08-30T06:45:01.926Z,3.95
2022-08-30T06:47:30.630Z,3.80
2022-08-30T06:49:58.952Z,3.80
2022-08-30T06:52:26.757Z,3.72
2022-08-30T06:54:58.391Z,3.20
2022-08-30T06:57:27.084Z,2.90
2022-08-30T06:59:58.785Z,3.03
2022-08-30T07:02:27.019Z,3.03
2022-08-30T07:04:54.904Z,2.83
2022-08-30T07:07:23.276Z,2.63
2022-08-30T07:09:51.388Z,2.70
2022-08-30T07:12:19.130Z,3.20
2022-08-30T07:14:46.957Z,3.00
2022-08-30T07:17:34.841Z,3.00
2022-08-30T07:20:04.889Z,2.72
2022-08-30T07:22:35.766Z,2.65
2022-08-30T07:25:03.938Z,3.10
2022-08-30T07:27:31.911Z,3.28
2022-08-30T07:30:01.165Z,4.10
2022-08-30T07:32:29.107Z,3.55
2022-08-30T07:34:56.852Z,2.90
2022-08-30T07:37:25.179Z,3.10
2022-08-30T07:39:53.200Z,3.35
2022-08-30T07:42:21.067Z,3.40
2022-08-30T07:44:49.070Z,3.70
2022-08-30T07:47:16.919Z,3.10
2022-08-30T07:49:44.693Z,3.53
2022-08-30T07:52:12.711Z,3.42
2022-08-30T07:54:40.527Z,3.30
2022-08-30T07:57:08.521Z,3.72
2022-08-30T07:59:36.555Z,3.90
2022-08-30T08:02:04.655Z,3.92
2022-08-30T08:04:33.267Z,3.88
2022-08-30T08:07:01.381Z,2.90
2022-08-30T08:09:29.287Z,2.88
2022-08-30T08:11:57.562Z,2.95
2022-08-30T08:14:25.951Z,2.80
2022-08-30T08:16:53.846Z,2.97
2022-08-30T08:19:21.781Z,2.70
2022-08-30T08:21:55.698Z,2.88
2022-08-30T08:24:37.206Z,4.15
2022-08-30T08:27:05.304Z,3.30
2022-08-30T08:29:33.139Z,4.30
2022-08-30T08:32:01.287Z,3.70
2022-08-30T08:34:29.203Z,3.40
2022-08-30T08:36:56.993Z,3.15
2022-08-30T08:39:24.889Z,3.10
2022-08-30T08:42:31.964Z,2.58
2022-08-30T08:45:12.957Z,2.60
2022-08-30T08:47:59.229Z,2.50
2022-08-30T08:50:30.159Z,2.70
2022-08-30T08:53:45.479Z,2.58
2022-08-30T08:56:16.876Z,2.80
2022-08-30T08:58:48.973Z,2.90
2022-08-30T09:01:20.483Z,2.50
2022-08-30T09:03:49.450Z,2.50
2022-08-30T09:06:28.946Z,2.63
2022-08-30T09:08:57.149Z,2.50
2022-08-30T09:11:28.593Z,2.45
2022-08-30T09:13:56.480Z,2.15
2022-08-30T09:16:56.816Z,2.20
2022-08-30T09:19:58.894Z,2.10
2022-08-30T09:22:38.006Z,2.10
2022-08-30T09:25:17.287Z,2.00
2022-08-30T09:27:47.875Z,2.10
2022-08-30T09:30:30.365Z,2.05
2022-08-30T09:33:01.750Z,1.67
2022-08-30T09:35:37.507Z,2.17
2022-08-30T09:38:08.437Z,1.90
2022-08-30T09:40:42.619Z,2.20
2022-08-30T09:43:16.352Z,2.20
2022-08-30T09:45:49.803Z,2.35
2022-08-30T09:48:34.391Z,1.80
2022-08-30T09:51:12.990Z,1.83
2022-08-30T09:54:07.261Z,1.77
2022-08-30T09:59:42.497Z,1.50
2022-08-30T10:02:19.067Z,1.48
2022-08-30T10:04:46.966Z,2.10
2022-08-30T10:07:21.362Z,1.80
2022-08-30T10:10:29.044Z,1.65
2022-08-30T10:13:29.626Z,1.42
2022-08-30T10:16:22.489Z,1.60
2022-08-30T10:19:02.293Z,1.40
2022-08-30T10:21:50.129Z,1.70
2022-08-30T10:24:24.594Z,1.20
2022-08-30T10:26:55.466Z,1.60
2022-08-30T10:29:30.478Z,1.23
2022-08-30T10:32:51.381Z,1.73
2022-08-30T10:35:29.064Z,1.60
2022-08-30T10:38:10.568Z,1.50
2022-08-30T10:41:02.292Z,1.45
2022-08-30T10:43:52.675Z,1.45
2022-08-30T10:46:50.607Z,1.58
2022-08-30T10:49:22.491Z,1.75
2022-08-30T10:52:11.822Z,1.70
2022-08-30T10:54:47.204Z,1.60
2022-08-30T10:57:14.920Z,1.50
2022-08-30T10:59:50.534Z,1.60
2022-08-30T11:02:29.892Z,1.63
2022-08-30T11:05:12.376Z,1.40
2022-08-30T11:08:03.073Z,1.20
2022-08-30T11:10:42.462Z,1.33
2022-08-30T11:13:26.409Z,1.67
2022-08-30T11:16:15.419Z,1.25
2022-08-30T11:18:52.139Z,1.30
2022-08-30T11:21:23.477Z,1.23
2022-08-30T11:24:10.861Z,1.48
2022-08-30T11:27:00.126Z,1.70
2022-08-30T11:29:30.834Z,1.63
2022-08-30T11:32:17.324Z,1.17
2022-08-30T11:34:48.002Z,1.15
2022-08-30T11:37:35.960Z,1.13
2022-08-30T11:40:13.317Z,1.20
2022-08-30T11:42:49.318Z,1.55
2022-08-30T11:45:24.759Z,1.25
2022-08-30T11:48:00.842Z,1.25
2022-08-30T11:50:53.977Z,1.10
2022-08-30T11:53:38.207Z,1.00
2022-08-30T11:56:35.054Z,1.00
2022-08-30T11:59:26.767Z,1.15
2022-08-30T12:01:55.822Z,1.23
2022-08-30T12:04:43.155Z,0.80
2022-08-30T12:07:12.660Z,1.30
2022-08-30T12:09:46.794Z,1.00
2022-08-30T12:14:57.616Z,1.00
2022-08-30T12:17:47.017Z,1.30
2022-08-30T12:20:26.021Z,1.10
2022-08-30T12:22:55.661Z,1.10
2022-08-30T12:25:34.085Z,1.20
2022-08-30T12:28:12.083Z,1.25
2022-08-30T12:30:41.054Z,1.10
2022-08-30T12:33:12.711Z,1.00
2022-08-30T12:35:43.919Z,1.00
2022-08-30T12:38:27.658Z,1.20
2022-08-30T12:41:00.350Z,0.80
2022-08-30T12:43:40.195Z,1.13
2022-08-30T12:46:15.339Z,1.02
2022-08-30T12:48:45.063Z,0.98
2022-08-30T12:51:38.956Z,1.00
2022-08-30T12:54:16.097Z,0.77
2022-08-30T12:57:19.313Z,0.80
2022-08-30T12:59:59.325Z,1.20
2022-08-30T13:02:53.131Z,1.13
2022-08-30T13:05:41.683Z,1.00
2022-08-30T13:08:18.792Z,1.15
2022-08-30T13:11:01.538Z,1.13
2022-08-30T13:13:51.956Z,0.93
2022-08-30T13:16:35.437Z,1.00
2022-08-30T13:19:33.612Z,1.10
2022-08-30T13:22:02.322Z,0.85
2022-08-30T13:24:30.933Z,0.90
2022-08-30T13:27:11.853Z,0.98
2022-08-30T13:29:40.546Z,1.05
2022-08-30T13:32:10.109Z,0.70
2022-08-30T13:34:38.893Z,0.93
2022-08-30T13:37:44.297Z,0.85
2022-08-30T13:39:55.749Z,1.30
2022-08-30T13:42:39.055Z,1.10
2022-08-30T13:45:40.975Z,1.00
2022-08-30T13:47:56.007Z,0.98
2022-08-30T13:50:23.956Z,0.75
2022-08-30T13:52:55.162Z,0.80
2022-08-30T13:55:23.077Z,0.85
2022-08-30T13:57:55.201Z,0.77
2022-08-30T14:00:25.357Z,1.30
2022-08-30T14:02:57.544Z,0.90
2022-08-30T14:05:48.700Z,0.90
2022-08-30T14:11:18.394Z,0.73
2022-08-30T14:16:37.132Z,0.80
2022-08-30T14:19:06.333Z,0.90
2022-08-30T14:21:36.257Z,1.20
2022-08-30T14:24:06.552Z,1.30
2022-08-30T14:26:40.720Z,1.20
2022-08-30T14:29:11.209Z,1.30
2022-08-30T14:31:40.350Z,1.30
2022-08-30T14:34:10.951Z,1.40
2022-08-30T14:36:42.541Z,1.60
2022-08-30T14:39:14.725Z,1.58
2022-08-30T14:41:45.889Z,1.70
2022-08-30T14:44:15.658Z,1.60
2022-08-30T14:46:44.453Z,1.55
2022-08-30T14:49:13.918Z,1.75
2022-08-30T14:51:42.582Z,1.70
2022-08-30T14:54:10.885Z,1.45
2022-08-30T14:56:45.102Z,1.42
2022-08-30T14:59:13.426Z,1.42
2022-08-30T15:01:42.105Z,1.70
2022-08-30T15:04:10.813Z,1.75
2022-08-30T15:06:40.553Z,1.45
2022-08-30T15:09:11.193Z,1.40
2022-08-30T15:11:39.979Z,1.40
2022-08-30T15:14:08.888Z,1.35
2022-08-30T15:16:39.774Z,1.33
2022-08-30T15:19:10.681Z,1.00
2022-08-30T15:21:46.471Z,1.17
2022-08-30T15:24:19.833Z,1.25
2022-08-30T15:26:55.484Z,1.45
2022-08-30T15:29:24.526Z,1.20
2022-08-30T15:31:52.649Z,1.20
2022-08-30T15:34:28.120Z,1.10
2022-08-30T15:36:57.265Z,0.90
2022-08-30T15:39:25.973Z,1.02
2022-08-30T15:41:58.429Z,0.90
2022-08-30T15:44:32.524Z,1.15
2022-08-30T15:47:03.966Z,1.50
2022-08-30T15:49:32.275Z,1.00
2022-08-30T15:52:02.445Z,1.00
2022-08-30T15:54:30.962Z,0.77
2022-08-30T15:56:59.576Z,1.10
2022-08-30T15:59:29.367Z,1.13
2022-08-30T16:01:58.115Z,1.30
2022-08-30T16:04:26.237Z,1.35
2022-08-30T16:06:54.441Z,1.20
2022-08-30T16:09:23.154Z,1.20
2022-08-30T16:11:51.188Z,1.00
2022-08-30T16:14:19.074Z,1.25
2022-08-30T16:16:46.793Z,1.20
2022-08-30T16:19:14.751Z,1.27
2022-08-30T16:21:44.076Z,1.05
2022-08-30T16:24:14.086Z,1.00
2022-08-30T16:26:43.700Z,0.82
2022-08-30T16:29:13.204Z,0.90
2022-08-30T16:31:44.296Z,1.20
2022-08-30T16:34:15.088Z,1.02
2022-08-30T16:36:43.740Z,1.10
2022-08-30T16:39:13.554Z,1.00
2022-08-30T16:41:44.344Z,1.20
2022-08-30T16:44:13.573Z,1.10
2022-08-30T16:46:44.038Z,1.40
2022-08-30T16:49:23.178Z,1.60
2022-08-30T16:51:53.492Z,1.60
2022-08-30T16:54:21.297Z,1.50
2022-08-30T16:56:49.160Z,2.47
2022-08-30T16:59:17.743Z,1.73
2022-08-30T17:01:48.134Z,1.65
2022-08-30T17:04:19.298Z,1.70
2022-08-30T17:06:49.690Z,1.85
2022-08-30T17:09:19.183Z,1.80
2022-08-30T17:11:47.846Z,1.67
2022-08-30T17:14:21.550Z,1.90
2022-08-30T17:16:56.263Z,1.88
2022-08-30T17:19:27.257Z,1.90
2022-08-30T17:21:58.074Z,1.70
2022-08-30T17:24:27.170Z,1.55
2022-08-30T17:26:55.413Z,2.05
2022-08-30T17:29:23.310Z,2.00
2022-08-30T17:31:51.709Z,2.55
2022-08-30T17:34:21.995Z,1.88
2022-08-30T17:36:51.497Z,1.83
2022-08-30T17:39:19.676Z,2.13
2022-08-30T17:41:50.517Z,2.05
2022-08-30T17:44:29.032Z,2.20
2022-08-30T17:46:59.561Z,2.25
2022-08-30T17:49:28.832Z,2.28
2022-08-30T17:51:57.995Z,2.90
2022-08-30T17:54:28.131Z,2.45
2022-08-30T17:56:57.441Z,1.98
2022-08-30T17:59:26.460Z,1.75
2022-08-30T18:01:57.441Z,2.15
2022-08-30T18:04:26.955Z,1.95
2022-08-30T18:06:56.175Z,2.10
2022-08-30T18:09:24.585Z,2.80
2022-08-30T18:11:56.303Z,4.05
2022-08-30T18:14:25.222Z,2.92
2022-08-30T18:16:54.873Z,1.80
2022-08-30T18:19:24.316Z,2.03
2022-08-30T18:21:52.706Z,2.47
2022-08-30T18:24:21.990Z,1.90
2022-08-30T18:26:50.422Z,2.17
2022-08-30T18:29:26.052Z,2.10
2022-08-30T18:32:03.432Z,1.58
2022-08-30T18:34:31.778Z,1.45
2022-08-30T18:37:01.127Z,1.80
2022-08-30T18:42:17.636Z,1.63
2022-08-30T18:44:45.706Z,1.67
2022-08-30T18:47:13.579Z,1.67
2022-08-30T18:49:42.694Z,2.08
2022-08-30T18:52:11.481Z,1.75
2022-08-30T18:54:51.701Z,1.50
2022-08-30T18:57:22.143Z,1.30
2022-08-30T18:59:50.360Z,1.50
2022-08-30T19:02:19.052Z,1.63
2022-08-30T19:04:49.219Z,1.38
2022-08-30T19:07:19.524Z,1.42
2022-08-30T19:09:47.465Z,1.50
2022-08-30T19:12:16.210Z,1.25
2022-08-30T19:14:43.972Z,1.30
2022-08-30T19:17:12.633Z,1.10
2022-08-30T19:19:47.235Z,1.40
2022-08-30T19:22:19.048Z,1.40
2022-08-30T19:24:49.733Z,1.60
2022-08-30T19:30:29.931Z,1.60
2022-08-30T19:32:57.886Z,1.25
2022-08-30T19:35:26.619Z,1.38
2022-08-30T19:37:59.508Z,1.30
2022-08-30T19:40:28.209Z,2.00
2022-08-30T19:42:56.767Z,1.40
2022-08-30T19:45:25.268Z,1.50
2022-08-30T19:47:53.681Z,1.40
2022-08-30T19:50:22.170Z,1.30
2022-08-30T19:52:54.144Z,1.50
2022-08-30T19:55:30.166Z,1.48
2022-08-30T19:57:59.321Z,1.20
2022-08-30T20:00:27.304Z,1.30
2022-08-30T20:03:01.450Z,1.40
2022-08-30T20:05:31.834Z,1.52
2022-08-30T20:08:00.644Z,1.50
2022-08-30T20:10:28.548Z,1.60
2022-08-30T20:12:56.807Z,1.67
2022-08-30T20:15:25.766Z,1.65
2022-08-30T20:18:05.097Z,2.42
2022-08-30T20:20:33.740Z,2.70
2022-08-30T20:23:05.584Z,2.28
2022-08-30T20:24:28.313Z,1.90
2022-08-30T20:25:34.447Z,2.15
2022-08-30T20:28:03.369Z,2.00
2022-08-30T20:30:32.306Z,1.40
2022-08-30T20:33:03.712Z,1.83
2022-08-30T20:35:34.280Z,1.73
2022-08-30T20:38:06.482Z,1.90
2022-08-30T20:40:37.112Z,1.80
2022-08-30T20:43:06.349Z,2.20
2022-08-30T20:45:34.685Z,2.15
2022-08-30T20:48:03.261Z,1.92
2022-08-30T20:50:31.505Z,2.10
2022-08-30T20:52:59.439Z,2.10
2022-08-30T20:55:27.203Z,2.20
2022-08-30T20:57:55.116Z,2.00
2022-08-30T21:00:23.864Z,1.88
2022-08-30T21:02:54.619Z,2.10
2022-08-30T21:05:22.745Z,1.70
2022-08-30T21:07:50.550Z,1.70
2022-08-30T21:10:22.712Z,1.95
2022-08-30T21:12:51.703Z,1.98
2022-08-30T21:15:37.610Z,2.00
2022-08-30T21:18:06.552Z,2.20
2022-08-30T21:20:34.368Z,2.03
2022-08-30T21:23:02.373Z,1.90
2022-08-30T21:25:33.274Z,2.22
2022-08-30T21:28:01.374Z,1.80
2022-08-30T21:30:29.312Z,2.05
2022-08-30T21:33:00.102Z,2.05
2022-08-30T21:35:47.396Z,2.55
2022-08-30T21:38:16.582Z,2.20
2022-08-30T21:40:44.692Z,1.90
2022-08-30T21:43:12.757Z,1.80
2022-08-30T21:45:41.765Z,1.98
2022-08-30T21:48:11.584Z,2.13
2022-08-30T21:50:42.290Z,1.98
2022-08-30T21:53:10.810Z,1.80
2022-08-30T21:55:40.311Z,2.00
2022-08-30T21:58:11.813Z,1.98
2022-08-30T22:00:39.616Z,1.85
2022-08-30T22:03:07.375Z,1.90
2022-08-30T22:05:35.541Z,1.85
2022-08-30T22:08:03.504Z,1.90
2022-08-30T22:10:33.258Z,2.08
2022-08-30T22:13:01.613Z,1.80
2022-08-30T22:15:31.561Z,1.88
2022-08-30T22:18:00.950Z,1.83
2022-08-30T22:20:30.321Z,1.88
2022-08-30T22:22:58.602Z,1.92
2022-08-30T22:25:26.671Z,2.00
2022-08-30T22:27:54.625Z,1.92
2022-08-30T22:30:22.603Z,2.00
2022-08-30T22:32:51.479Z,2.05
2022-08-30T22:35:20.687Z,2.00
2022-08-30T22:37:53.493Z,1.90
2022-08-30T22:40:22.259Z,1.90
2022-08-30T22:42:50.063Z,2.10
2022-08-30T22:45:18.134Z,1.80
2022-08-30T22:47:46.275Z,2.20
2022-08-30T22:50:14.387Z,1.83
2022-08-30T22:52:42.214Z,2.38
2022-08-30T22:55:10.143Z,1.75
2022-08-30T22:57:39.138Z,1.83
2022-08-30T23:00:15.190Z,1.80
2022-08-30T23:02:47.036Z,1.90
2022-08-30T23:05:16.215Z,2.05
2022-08-30T23:07:44.506Z,1.65
2022-08-30T23:10:14.423Z,2.00
2022-08-30T23:12:43.075Z,2.05
2022-08-30T23:15:14.940Z,2.10
2022-08-30T23:17:42.879Z,2.10
2022-08-30T23:20:10.975Z,2.05
2022-08-30T23:22:38.919Z,1.88
2022-08-30T23:25:26.555Z,2.20
2022-08-30T23:28:19.100Z,2.17
2022-08-30T23:31:07.084Z,2.50
2022-08-30T23:33:53.692Z,2.65
2022-08-30T23:36:40.131Z,2.45
2022-08-30T23:39:26.793Z,2.20
2022-08-30T23:42:13.415Z,2.30
2022-08-30T23:45:00.220Z,2.20
2022-08-30T23:47:46.574Z,2.00
2022-08-30T23:50:33.021Z,2.05
2022-08-30T23:53:19.666Z,2.25
2022-08-30T23:56:06.568Z,2.30
2022-08-30T23:58:54.254Z,2.45
